createdAt,value
2018-07-01T00:00:50.938Z,18.88
2018-07-01T00:01:50.887Z,18.95
2018-07-01T00:02:50.898Z,18.88
2018-07-01T00:03:50.915Z,18.84
2018-07-01T00:04:50.937Z,18.92
2018-07-01T00:05:50.947Z,18.87
2018-07-01T00:06:50.966Z,18.94
2018-07-01T00:08:51.299Z,18.92
2018-07-01T00:09:51.070Z,18.82
2018-07-01T00:10:51.752Z,18.81
2018-07-01T00:11:51.045Z,18.75
2018-07-01T00:12:51.068Z,18.70
2018-07-01T00:13:51.082Z,18.67
2018-07-01T00:14:51.098Z,18.66
2018-07-01T00:15:51.111Z,18.80
2018-07-01T00:16:51.126Z,18.80
2018-07-01T00:17:51.142Z,18.87
2018-07-01T00:18:51.160Z,18.87
2018-07-01T00:19:51.189Z,19.07
2018-07-01T00:20:51.215Z,18.99
2018-07-01T00:21:51.208Z,18.98
2018-07-01T00:22:51.278Z,18.90
2018-07-01T00:23:51.249Z,18.78
2018-07-01T00:24:51.256Z,18.76
2018-07-01T00:25:51.290Z,18.81
2018-07-01T00:26:51.374Z,18.90
2018-07-01T00:27:51.309Z,18.87
2018-07-01T00:28:51.326Z,18.78
2018-07-01T00:29:51.345Z,18.91
2018-07-01T00:30:51.356Z,18.87
2018-07-01T00:31:51.386Z,18.84
2018-07-01T00:32:51.386Z,18.85
2018-07-01T00:33:51.409Z,18.80
2018-07-01T00:34:51.420Z,18.66
2018-07-01T00:35:51.465Z,18.66
2018-07-01T00:36:51.457Z,18.54
2018-07-01T00:37:51.470Z,18.57
2018-07-01T00:38:51.488Z,18.55
2018-07-01T00:39:51.502Z,18.57
2018-07-01T00:40:51.517Z,18.50
2018-07-01T00:41:51.535Z,18.45
2018-07-01T00:42:51.550Z,18.36
2018-07-01T00:43:51.673Z,18.33
2018-07-01T00:44:51.956Z,18.32
2018-07-01T00:45:51.631Z,18.27
2018-07-01T00:46:51.615Z,18.25
2018-07-01T00:47:51.637Z,18.27
2018-07-01T00:48:53.848Z,18.26
2018-07-01T00:49:51.668Z,18.33
2018-07-01T00:50:51.689Z,18.27
2018-07-01T00:51:51.701Z,18.32
2018-07-01T00:52:51.716Z,18.32
2018-07-01T00:53:51.734Z,18.33
2018-07-01T00:54:51.746Z,18.36
2018-07-01T00:55:51.760Z,18.29
2018-07-01T00:56:51.777Z,18.21
2018-07-01T00:57:51.793Z,18.26
2018-07-01T00:58:51.813Z,18.23
2018-07-01T00:59:51.830Z,18.18
2018-07-01T01:00:51.847Z,18.25
2018-07-01T01:01:51.860Z,18.17
2018-07-01T01:02:51.924Z,18.10
2018-07-01T01:03:51.891Z,18.15
2018-07-01T01:04:51.988Z,18.12
2018-07-01T01:05:51.927Z,18.21
2018-07-01T01:06:51.980Z,18.30
2018-07-01T01:07:51.958Z,18.30
2018-07-01T01:08:51.974Z,18.21
2018-07-01T01:09:51.987Z,18.21
2018-07-01T01:10:52.009Z,18.11
2018-07-01T01:11:52.022Z,18.21
2018-07-01T01:12:52.036Z,18.14
2018-07-01T01:14:52.950Z,18.15
2018-07-01T01:15:52.085Z,18.20
2018-07-01T01:16:52.102Z,18.14
2018-07-01T01:17:52.123Z,18.11
2018-07-01T01:18:52.237Z,17.99
2018-07-01T01:19:52.286Z,17.90
2018-07-01T01:20:52.172Z,17.97
2018-07-01T01:22:52.198Z,17.90
2018-07-01T01:23:52.262Z,17.95
2018-07-01T01:24:52.230Z,17.89
2018-07-01T01:25:52.245Z,17.84
2018-07-01T01:26:52.262Z,17.78
2018-07-01T01:27:52.279Z,17.79
2018-07-01T01:28:52.294Z,17.78
2018-07-01T01:29:52.312Z,17.82
2018-07-01T01:30:52.339Z,17.81
2018-07-01T01:31:52.353Z,17.90
2018-07-01T01:32:52.359Z,17.87
2018-07-01T01:33:52.378Z,17.81
2018-07-01T01:34:52.399Z,17.75
2018-07-01T01:35:52.408Z,17.63
2018-07-01T01:36:52.422Z,17.56
2018-07-01T01:37:52.442Z,17.64
2018-07-01T01:38:52.455Z,17.58
2018-07-01T01:39:52.471Z,17.51
2018-07-01T01:40:52.488Z,17.51
2018-07-01T01:41:52.505Z,17.58
2018-07-01T01:42:52.522Z,17.49
2018-07-01T01:43:52.661Z,17.46
2018-07-01T01:44:52.700Z,17.63
2018-07-01T01:45:52.752Z,17.48
2018-07-01T01:46:52.649Z,17.49
2018-07-01T01:47:52.621Z,17.54
2018-07-01T01:48:52.616Z,17.54
2018-07-01T01:49:52.632Z,17.54
2018-07-01T01:50:52.648Z,17.52
2018-07-01T01:51:52.764Z,17.54
2018-07-01T01:52:53.043Z,17.58
2018-07-01T01:53:52.788Z,17.56
2018-07-01T01:54:52.712Z,17.68
2018-07-01T01:55:52.752Z,17.71
2018-07-01T01:56:52.743Z,17.70
2018-07-01T01:57:52.761Z,17.49
2018-07-01T01:58:52.809Z,17.52
2018-07-01T01:59:52.791Z,17.52
2018-07-01T02:00:52.805Z,17.46
2018-07-01T02:01:52.826Z,17.43
2018-07-01T02:02:52.842Z,17.49
2018-07-01T02:03:52.857Z,17.37
2018-07-01T02:04:52.871Z,17.38
2018-07-01T02:05:52.887Z,17.46
2018-07-01T02:06:52.901Z,17.46
2018-07-01T02:07:52.919Z,17.34
2018-07-01T02:08:52.945Z,17.34
2018-07-01T02:09:52.950Z,17.40
2018-07-01T02:10:52.970Z,17.48
2018-07-01T02:11:52.985Z,17.36
2018-07-01T02:12:53.036Z,17.37
2018-07-01T02:13:53.016Z,17.36
2018-07-01T02:14:53.031Z,17.41
2018-07-01T02:15:53.058Z,17.31
2018-07-01T02:16:53.174Z,17.18
2018-07-01T02:17:53.099Z,17.06
2018-07-01T02:18:53.259Z,17.21
2018-07-01T02:19:53.114Z,17.16
2018-07-01T02:20:53.133Z,17.28
2018-07-01T02:21:53.147Z,17.21
2018-07-01T02:22:53.156Z,17.11
2018-07-01T02:23:53.178Z,17.04
2018-07-01T02:24:53.284Z,17.06
2018-07-01T02:25:53.214Z,16.98
2018-07-01T02:26:53.331Z,16.98
2018-07-01T02:27:53.261Z,17.06
2018-07-01T02:28:53.257Z,17.00
2018-07-01T02:29:53.271Z,16.98
2018-07-01T02:30:53.285Z,16.91
2018-07-01T02:31:53.367Z,16.94
2018-07-01T02:32:53.325Z,16.94
2018-07-01T02:33:53.344Z,16.86
2018-07-01T02:34:53.350Z,16.82
2018-07-01T02:35:53.560Z,16.96
2018-07-01T02:36:53.380Z,16.93
2018-07-01T02:37:53.442Z,16.93
2018-07-01T02:38:53.477Z,16.94
2018-07-01T02:39:53.430Z,16.97
2018-07-01T02:40:53.451Z,17.00
2018-07-01T02:41:53.479Z,17.00
2018-07-01T02:42:53.537Z,16.91
2018-07-01T02:43:53.495Z,16.76
2018-07-01T02:44:53.511Z,16.94
2018-07-01T02:45:53.527Z,16.89
2018-07-01T02:46:53.536Z,16.83
2018-07-01T02:47:53.556Z,16.91
2018-07-01T02:49:53.646Z,16.76
2018-07-01T02:50:53.676Z,16.81
2018-07-01T02:51:53.620Z,16.78
2018-07-01T02:52:53.638Z,16.71
2018-07-01T02:53:53.770Z,16.89
2018-07-01T02:54:53.664Z,16.91
2018-07-01T02:55:53.683Z,16.89
2018-07-01T02:56:54.160Z,16.91
2018-07-01T02:57:53.822Z,16.93
2018-07-01T02:58:53.813Z,16.81
2018-07-01T02:59:53.812Z,16.89
2018-07-01T03:00:53.759Z,16.82
2018-07-01T03:01:53.775Z,16.79
2018-07-01T03:02:53.791Z,16.79
2018-07-01T03:03:53.819Z,16.88
2018-07-01T03:04:53.826Z,16.88
2018-07-01T03:05:53.836Z,16.85
2018-07-01T03:06:53.871Z,16.86
2018-07-01T03:07:53.874Z,16.91
2018-07-01T03:08:53.884Z,16.76
2018-07-01T03:09:53.898Z,16.76
2018-07-01T03:10:53.920Z,16.71
2018-07-01T03:11:53.938Z,16.76
2018-07-01T03:12:53.951Z,16.82
2018-07-01T03:13:53.975Z,16.82
2018-07-01T03:14:53.983Z,16.88
2018-07-01T03:15:53.996Z,16.85
2018-07-01T03:16:54.039Z,16.83
2018-07-01T03:17:54.028Z,16.75
2018-07-01T03:18:54.040Z,16.64
2018-07-01T03:19:54.057Z,16.68
2018-07-01T03:20:54.084Z,16.73
2018-07-01T03:21:54.089Z,16.79
2018-07-01T03:22:54.248Z,16.70
2018-07-01T03:23:54.284Z,16.67
2018-07-01T03:24:54.398Z,16.52
2018-07-01T03:25:54.151Z,16.60
2018-07-01T03:26:54.167Z,16.53
2018-07-01T03:27:54.612Z,16.61
2018-07-01T03:28:54.203Z,16.67
2018-07-01T03:29:54.258Z,16.60
2018-07-01T03:30:54.330Z,16.58
2018-07-01T03:31:54.247Z,16.52
2018-07-01T03:32:54.262Z,16.52
2018-07-01T03:33:54.275Z,16.48
2018-07-01T03:34:54.326Z,16.46
2018-07-01T03:35:54.306Z,16.48
2018-07-01T03:36:54.702Z,16.49
2018-07-01T03:37:54.336Z,16.46
2018-07-01T03:38:54.383Z,16.50
2018-07-01T03:39:54.372Z,16.43
2018-07-01T03:40:54.384Z,16.34
2018-07-01T03:41:54.406Z,16.35
2018-07-01T03:42:54.418Z,16.28
2018-07-01T03:43:54.435Z,16.34
2018-07-01T03:44:54.456Z,16.38
2018-07-01T03:45:54.475Z,16.30
2018-07-01T03:46:54.478Z,16.39
2018-07-01T03:47:54.496Z,16.35
2018-07-01T03:48:54.514Z,16.42
2018-07-01T03:49:54.532Z,16.41
2018-07-01T03:50:54.542Z,16.33
2018-07-01T03:51:54.558Z,16.35
2018-07-01T03:52:54.583Z,16.34
2018-07-01T03:53:54.587Z,16.39
2018-07-01T03:54:54.658Z,16.35
2018-07-01T03:55:54.693Z,16.34
2018-07-01T03:56:54.653Z,16.42
2018-07-01T03:57:55.394Z,16.43
2018-07-01T03:58:55.422Z,16.35
2018-07-01T03:59:55.480Z,16.45
2018-07-01T04:00:55.191Z,16.39
2018-07-01T04:01:54.729Z,16.42
2018-07-01T04:02:54.733Z,16.34
2018-07-01T04:03:54.747Z,16.50
2018-07-01T04:04:54.759Z,16.46
2018-07-01T04:05:54.802Z,16.49
2018-07-01T04:06:54.791Z,16.63
2018-07-01T04:07:54.811Z,16.56
2018-07-01T04:08:54.821Z,16.60
2018-07-01T04:09:54.841Z,16.58
2018-07-01T04:10:54.854Z,16.56
2018-07-01T04:11:54.935Z,16.46
2018-07-01T04:12:54.886Z,16.46
2018-07-01T04:13:54.901Z,16.46
2018-07-01T04:14:54.924Z,16.35
2018-07-01T04:15:54.929Z,16.31
2018-07-01T04:16:54.955Z,16.34
2018-07-01T04:17:54.964Z,16.45
2018-07-01T04:18:54.977Z,16.34
2018-07-01T04:19:54.994Z,16.50
2018-07-01T04:20:55.009Z,16.58
2018-07-01T04:21:55.025Z,16.63
2018-07-01T04:22:55.042Z,16.64
2018-07-01T04:23:55.055Z,16.60
2018-07-01T04:24:55.075Z,16.61
2018-07-01T04:25:55.088Z,16.61
2018-07-01T04:26:55.101Z,16.53
2018-07-01T04:27:55.116Z,16.57
2018-07-01T04:28:55.183Z,16.53
2018-07-01T04:30:55.221Z,16.46
2018-07-01T04:31:55.180Z,16.50
2018-07-01T04:32:55.205Z,16.64
2018-07-01T04:33:55.264Z,16.63
2018-07-01T04:34:55.488Z,16.68
2018-07-01T04:35:55.329Z,16.67
2018-07-01T04:36:55.262Z,16.71
2018-07-01T04:37:55.274Z,16.82
2018-07-01T04:38:55.299Z,16.82
2018-07-01T04:39:55.303Z,16.79
2018-07-01T04:40:55.328Z,16.86
2018-07-01T04:41:55.333Z,16.81
2018-07-01T04:42:55.349Z,16.82
2018-07-01T04:43:55.376Z,16.93
2018-07-01T04:44:55.395Z,16.91
2018-07-01T04:45:55.394Z,16.85
2018-07-01T04:46:55.411Z,16.86
2018-07-01T04:47:55.428Z,16.89
2018-07-01T04:48:55.441Z,16.89
2018-07-01T04:49:55.458Z,16.88
2018-07-01T04:50:55.474Z,17.01
2018-07-01T04:51:55.540Z,16.98
2018-07-01T04:52:55.507Z,17.04
2018-07-01T04:53:55.536Z,17.00
2018-07-01T04:54:55.554Z,17.03
2018-07-01T04:55:55.554Z,17.21
2018-07-01T04:56:55.568Z,17.07
2018-07-01T04:57:55.592Z,17.19
2018-07-01T04:58:55.611Z,17.21
2018-07-01T04:59:55.612Z,17.22
2018-07-01T05:00:55.629Z,17.30
2018-07-01T05:01:55.723Z,17.34
2018-07-01T05:02:55.660Z,17.33
2018-07-01T05:03:55.687Z,17.37
2018-07-01T05:04:55.864Z,17.44
2018-07-01T05:05:55.785Z,17.40
2018-07-01T05:06:55.757Z,17.26
2018-07-01T05:07:55.752Z,17.15
2018-07-01T05:08:55.783Z,17.21
2018-07-01T05:09:55.916Z,17.19
2018-07-01T05:10:55.915Z,17.23
2018-07-01T05:11:55.834Z,17.25
2018-07-01T05:12:55.909Z,17.37
2018-07-01T05:13:55.836Z,17.41
2018-07-01T05:14:55.851Z,17.37
2018-07-01T05:15:55.866Z,17.37
2018-07-01T05:16:55.880Z,17.46
2018-07-01T05:17:55.895Z,17.49
2018-07-01T05:18:55.915Z,17.49
2018-07-01T05:19:55.968Z,17.44
2018-07-01T05:20:55.947Z,17.54
2018-07-01T05:21:55.963Z,17.62
2018-07-01T05:22:55.983Z,17.71
2018-07-01T05:23:55.994Z,17.79
2018-07-01T05:24:56.008Z,17.77
2018-07-01T05:25:56.048Z,17.79
2018-07-01T05:26:56.053Z,17.75
2018-07-01T05:27:56.067Z,17.75
2018-07-01T05:28:56.072Z,17.75
2018-07-01T05:29:56.087Z,17.77
2018-07-01T05:30:56.123Z,17.90
2018-07-01T05:31:56.137Z,17.86
2018-07-01T05:32:56.137Z,17.93
2018-07-01T05:33:56.158Z,18.07
2018-07-01T05:34:56.214Z,18.03
2018-07-01T05:35:56.189Z,17.95
2018-07-01T05:36:56.283Z,17.92
2018-07-01T05:37:56.252Z,18.03
2018-07-01T05:38:56.247Z,18.05
2018-07-01T05:39:56.248Z,18.07
2018-07-01T05:40:56.272Z,18.07
2018-07-01T05:41:56.384Z,18.11
2018-07-01T05:42:56.292Z,18.14
2018-07-01T05:43:56.309Z,18.17
2018-07-01T05:44:56.326Z,18.21
2018-07-01T05:45:56.343Z,18.18
2018-07-01T05:46:56.368Z,18.18
2018-07-01T05:47:56.375Z,18.23
2018-07-01T05:48:56.388Z,18.29
2018-07-01T05:49:56.401Z,18.33
2018-07-01T05:50:56.419Z,18.44
2018-07-01T05:51:56.436Z,18.50
2018-07-01T05:52:56.480Z,18.41
2018-07-01T05:53:56.467Z,18.41
2018-07-01T05:54:56.485Z,18.58
2018-07-01T05:55:56.508Z,18.57
2018-07-01T05:56:56.512Z,18.58
2018-07-01T05:57:56.529Z,18.52
2018-07-01T05:58:56.564Z,18.62
2018-07-01T05:59:56.564Z,18.52
2018-07-01T06:00:56.591Z,18.55
2018-07-01T06:01:56.614Z,18.50
2018-07-01T06:02:56.631Z,18.62
2018-07-01T06:03:56.629Z,18.70
2018-07-01T06:04:56.643Z,18.62
2018-07-01T06:05:56.678Z,18.63
2018-07-01T06:06:56.671Z,18.76
2018-07-01T06:07:57.100Z,18.70
2018-07-01T06:08:56.747Z,18.75
2018-07-01T06:09:56.767Z,18.82
2018-07-01T06:10:56.837Z,18.84
2018-07-01T06:11:56.860Z,18.90
2018-07-01T06:12:56.817Z,18.82
2018-07-01T06:13:56.850Z,18.92
2018-07-01T06:14:56.909Z,18.95
2018-07-01T06:15:56.814Z,19.04
2018-07-01T06:16:56.830Z,19.08
2018-07-01T06:17:56.872Z,19.07
2018-07-01T06:18:56.862Z,19.14
2018-07-01T06:19:56.887Z,19.14
2018-07-01T06:20:56.893Z,19.14
2018-07-01T06:21:56.910Z,19.13
2018-07-01T06:22:56.938Z,19.25
2018-07-01T06:23:56.943Z,19.19
2018-07-01T06:24:56.958Z,19.19
2018-07-01T06:25:57.013Z,19.23
2018-07-01T06:26:56.993Z,19.39
2018-07-01T06:27:57.007Z,19.28
2018-07-01T06:28:57.021Z,19.36
2018-07-01T06:29:57.050Z,19.33
2018-07-01T06:30:57.056Z,19.36
2018-07-01T06:31:57.121Z,19.41
2018-07-01T06:32:57.170Z,19.43
2018-07-01T06:33:57.106Z,19.48
2018-07-01T06:34:57.117Z,19.55
2018-07-01T06:35:57.137Z,19.51
2018-07-01T06:36:57.202Z,19.54
2018-07-01T06:37:57.170Z,19.63
2018-07-01T06:38:57.184Z,19.63
2018-07-01T06:39:57.248Z,19.74
2018-07-01T06:40:57.434Z,19.77
2018-07-01T06:41:57.285Z,19.71
2018-07-01T06:42:57.241Z,19.73
2018-07-01T06:43:57.270Z,19.76
2018-07-01T06:44:57.477Z,19.84
2018-07-01T06:45:57.288Z,19.91
2018-07-01T06:46:57.538Z,19.84
2018-07-01T06:47:57.320Z,19.88
2018-07-01T06:48:57.337Z,19.92
2018-07-01T06:49:57.351Z,19.88
2018-07-01T06:50:57.370Z,19.99
2018-07-01T06:51:57.385Z,20.01
2018-07-01T06:52:57.413Z,19.99
2018-07-01T06:53:57.419Z,20.02
2018-07-01T06:54:57.434Z,20.20
2018-07-01T06:55:57.449Z,20.05
2018-07-01T06:56:57.465Z,20.17
2018-07-01T06:57:57.489Z,20.05
2018-07-01T06:58:57.497Z,20.14
2018-07-01T06:59:57.517Z,20.17
2018-07-01T07:00:57.530Z,20.28
2018-07-01T07:01:57.555Z,20.28
2018-07-01T07:02:57.563Z,20.31
2018-07-01T07:03:57.579Z,20.28
2018-07-01T07:04:57.596Z,20.43
2018-07-01T07:05:57.614Z,20.52
2018-07-01T07:06:57.740Z,20.41
2018-07-01T07:07:57.695Z,20.55
2018-07-01T07:08:57.658Z,20.54
2018-07-01T07:09:57.675Z,20.58
2018-07-01T07:10:57.689Z,20.57
2018-07-01T07:11:57.769Z,20.55
2018-07-01T07:12:57.728Z,20.57
2018-07-01T07:13:57.761Z,20.55
2018-07-01T07:14:57.756Z,20.67
2018-07-01T07:15:57.773Z,20.66
2018-07-01T07:16:57.814Z,20.69
2018-07-01T07:17:57.866Z,20.73
2018-07-01T07:18:57.839Z,20.84
2018-07-01T07:19:57.844Z,20.87
2018-07-01T07:20:57.855Z,20.92
2018-07-01T07:21:57.872Z,20.98
2018-07-01T07:22:57.888Z,20.89
2018-07-01T07:23:57.904Z,20.98
2018-07-01T07:24:57.922Z,20.92
2018-07-01T07:25:57.942Z,20.98
2018-07-01T07:26:57.950Z,21.04
2018-07-01T07:27:57.968Z,21.12
2018-07-01T07:28:57.990Z,20.97
2018-07-01T07:29:58.486Z,21.01
2018-07-01T07:30:58.020Z,21.01
2018-07-01T07:31:58.072Z,21.07
2018-07-01T07:32:58.124Z,21.10
2018-07-01T07:33:58.069Z,21.04
2018-07-01T07:34:58.083Z,21.19
2018-07-01T07:35:58.429Z,21.22
2018-07-01T07:36:58.174Z,21.21
2018-07-01T07:37:58.154Z,21.10
2018-07-01T07:38:58.173Z,20.97
2018-07-01T07:39:58.244Z,20.94
2018-07-01T07:40:58.184Z,21.03
2018-07-01T07:41:58.229Z,21.06
2018-07-01T07:42:58.290Z,21.17
2018-07-01T07:43:58.393Z,21.16
2018-07-01T07:44:58.341Z,21.22
2018-07-01T07:45:58.336Z,21.29
2018-07-01T07:46:58.311Z,21.35
2018-07-01T07:47:58.294Z,21.43
2018-07-01T07:48:58.412Z,21.44
2018-07-01T07:49:58.332Z,21.43
2018-07-01T07:50:58.344Z,21.40
2018-07-01T07:52:58.380Z,21.54
2018-07-01T07:53:58.502Z,21.59
2018-07-01T07:54:58.440Z,21.47
2018-07-01T07:55:58.428Z,21.47
2018-07-01T07:56:58.441Z,21.50
2018-07-01T07:57:58.465Z,21.61
2018-07-01T07:58:58.475Z,21.67
2018-07-01T07:59:58.494Z,21.65
2018-07-01T08:00:58.505Z,21.62
2018-07-01T08:01:58.689Z,21.53
2018-07-01T08:02:58.761Z,21.37
2018-07-01T08:03:58.563Z,21.40
2018-07-01T08:04:58.575Z,21.65
2018-07-01T08:05:58.588Z,21.62
2018-07-01T08:06:58.631Z,21.58
2018-07-01T08:07:58.692Z,21.61
2018-07-01T08:08:58.640Z,21.56
2018-07-01T08:09:58.662Z,21.59
2018-07-01T08:10:58.673Z,21.62
2018-07-01T08:11:58.690Z,21.61
2018-07-01T08:12:58.735Z,21.75
2018-07-01T08:13:58.725Z,21.75
2018-07-01T08:14:58.813Z,21.94
2018-07-01T08:15:58.855Z,22.06
2018-07-01T08:16:58.773Z,22.12
2018-07-01T08:17:58.812Z,22.17
2018-07-01T08:18:58.949Z,22.14
2018-07-01T08:19:58.820Z,22.02
2018-07-01T08:20:58.896Z,22.05
2018-07-01T08:21:58.928Z,21.92
2018-07-01T08:22:58.898Z,21.82
2018-07-01T08:23:58.937Z,21.77
2018-07-01T08:24:59.038Z,21.86
2018-07-01T08:25:59.003Z,21.91
2018-07-01T08:26:58.945Z,21.98
2018-07-01T08:27:58.963Z,21.94
2018-07-01T08:28:58.992Z,21.83
2018-07-01T08:29:58.989Z,21.86
2018-07-01T08:30:59.057Z,21.91
2018-07-01T08:31:59.028Z,22.06
2018-07-01T08:32:59.041Z,22.06
2018-07-01T08:33:59.051Z,21.94
2018-07-01T08:34:59.168Z,22.09
2018-07-01T08:35:59.094Z,22.20
2018-07-01T08:36:59.179Z,21.92
2018-07-01T08:37:59.118Z,22.02
2018-07-01T08:38:59.188Z,22.02
2018-07-01T08:39:59.175Z,21.98
2018-07-01T08:40:59.168Z,22.09
2018-07-01T08:41:59.186Z,22.05
2018-07-01T08:42:59.202Z,22.10
2018-07-01T08:43:59.223Z,22.27
2018-07-01T08:44:59.263Z,22.36
2018-07-01T08:45:59.251Z,22.42
2018-07-01T08:46:59.267Z,22.52
2018-07-01T08:47:59.438Z,22.35
2018-07-01T08:48:59.394Z,22.30
2018-07-01T08:49:59.318Z,22.46
2018-07-01T08:50:59.538Z,22.47
2018-07-01T08:51:59.741Z,22.42
2018-07-01T08:52:59.826Z,22.51
2018-07-01T08:53:59.397Z,22.60
2018-07-01T08:54:59.414Z,22.42
2018-07-01T08:55:59.448Z,22.42
2018-07-01T08:56:59.434Z,22.60
2018-07-01T08:57:59.474Z,22.55
2018-07-01T08:58:59.506Z,22.60
2018-07-01T08:59:59.570Z,22.57
2018-07-01T09:00:59.501Z,22.62
2018-07-01T09:01:59.521Z,22.55
2018-07-01T09:02:59.534Z,22.55
2018-07-01T09:03:59.556Z,22.61
2018-07-01T09:04:59.571Z,22.70
2018-07-01T09:05:59.621Z,22.79
2018-07-01T09:06:59.650Z,22.88
2018-07-01T09:07:59.618Z,22.92
2018-07-01T09:08:59.642Z,22.92
2018-07-01T09:09:59.651Z,22.79
2018-07-01T09:10:59.678Z,22.91
2018-07-01T09:11:59.747Z,22.94
2018-07-01T09:12:59.700Z,22.92
2018-07-01T09:13:59.782Z,22.94
2018-07-01T09:14:59.736Z,22.90
2018-07-01T09:15:59.753Z,22.83
2018-07-01T09:16:59.844Z,22.85
2018-07-01T09:17:59.787Z,22.85
2018-07-01T09:18:59.804Z,22.79
2018-07-01T09:19:59.879Z,22.75
2018-07-01T09:20:59.835Z,22.79
2018-07-01T09:21:59.850Z,22.80
2018-07-01T09:22:59.871Z,22.67
2018-07-01T09:23:59.889Z,22.73
2018-07-01T09:24:59.906Z,22.85
2018-07-01T09:26:00.067Z,22.94
2018-07-01T09:26:59.936Z,22.83
2018-07-01T09:27:59.952Z,22.77
2018-07-01T09:29:00.119Z,22.91
2018-07-01T09:29:59.990Z,22.92
2018-07-01T09:31:00.335Z,22.75
2018-07-01T09:32:00.058Z,22.76
2018-07-01T09:33:00.043Z,23.02
2018-07-01T09:34:00.069Z,23.05
2018-07-01T09:35:00.079Z,23.10
2018-07-01T09:36:00.091Z,23.15
2018-07-01T09:37:00.104Z,23.07
2018-07-01T09:38:00.120Z,23.07
2018-07-01T09:39:00.139Z,23.00
2018-07-01T09:40:00.158Z,23.07
2018-07-01T09:41:00.173Z,22.72
2018-07-01T09:42:00.188Z,22.75
2018-07-01T09:43:00.209Z,22.85
2018-07-01T09:44:00.234Z,22.79
2018-07-01T09:45:00.238Z,22.82
2018-07-01T09:46:00.254Z,22.80
2018-07-01T09:47:00.275Z,22.92
2018-07-01T09:48:00.309Z,23.05
2018-07-01T09:49:00.312Z,23.32
2018-07-01T09:50:00.327Z,23.39
2018-07-01T09:51:00.338Z,23.36
2018-07-01T09:52:00.375Z,23.48
2018-07-01T09:53:00.886Z,23.47
2018-07-01T09:54:00.417Z,23.40
2018-07-01T09:55:00.452Z,23.53
2018-07-01T09:56:00.423Z,23.65
2018-07-01T09:57:00.448Z,23.57
2018-07-01T09:58:00.464Z,23.66
2018-07-01T09:59:00.525Z,23.35
2018-07-01T10:00:00.522Z,23.51
2018-07-01T10:01:00.550Z,23.55
2018-07-01T10:02:00.524Z,23.61
2018-07-01T10:03:00.545Z,23.63
2018-07-01T10:04:00.556Z,23.70
2018-07-01T10:05:00.574Z,23.57
2018-07-01T10:06:00.617Z,23.69
2018-07-01T10:07:00.664Z,23.84
2018-07-01T10:08:00.628Z,23.87
2018-07-01T10:09:00.667Z,23.84
2018-07-01T10:10:00.699Z,23.84
2018-07-01T10:11:00.683Z,23.84
2018-07-01T10:12:00.708Z,23.94
2018-07-01T10:13:00.769Z,23.88
2018-07-01T10:14:00.763Z,23.87
2018-07-01T10:15:00.779Z,23.69
2018-07-01T10:16:00.763Z,23.63
2018-07-01T10:17:00.788Z,23.78
2018-07-01T10:18:00.798Z,23.80
2018-07-01T10:19:00.819Z,23.68
2018-07-01T10:20:00.833Z,23.55
2018-07-01T10:21:00.853Z,23.57
2018-07-01T10:22:00.878Z,23.63
2018-07-01T10:23:00.880Z,23.70
2018-07-01T10:24:00.898Z,23.79
2018-07-01T10:25:00.915Z,23.83
2018-07-01T10:26:00.937Z,23.93
2018-07-01T10:27:00.949Z,23.94
2018-07-01T10:28:00.966Z,23.85
2018-07-01T10:29:00.983Z,24.03
2018-07-01T10:30:01.003Z,23.94
2018-07-01T10:31:01.142Z,23.98
2018-07-01T10:32:01.123Z,23.98
2018-07-01T10:33:01.054Z,23.98
2018-07-01T10:34:01.071Z,24.10
2018-07-01T10:35:01.089Z,24.06
2018-07-01T10:36:01.104Z,23.95
2018-07-01T10:37:01.120Z,24.12
2018-07-01T10:39:01.161Z,24.27
2018-07-01T10:40:01.301Z,24.40
2018-07-01T10:41:01.189Z,24.49
2018-07-01T10:42:01.205Z,24.45
2018-07-01T10:43:01.223Z,24.42
2018-07-01T10:44:01.244Z,24.52
2018-07-01T10:45:01.275Z,24.47
2018-07-01T10:46:01.274Z,24.60
2018-07-01T10:47:01.304Z,24.39
2018-07-01T10:48:01.325Z,24.34
2018-07-01T10:49:01.326Z,24.35
2018-07-01T10:50:01.340Z,24.37
2018-07-01T10:51:01.366Z,24.35
2018-07-01T10:52:01.378Z,24.28
2018-07-01T10:53:01.393Z,24.32
2018-07-01T10:54:01.410Z,24.25
2018-07-01T10:55:01.428Z,24.27
2018-07-01T10:56:01.465Z,24.13
2018-07-01T10:57:01.473Z,24.05
2018-07-01T10:58:01.486Z,24.27
2018-07-01T10:59:01.518Z,24.03
2018-07-01T11:00:01.514Z,24.16
2018-07-01T11:01:01.530Z,24.24
2018-07-01T11:02:01.551Z,24.35
2018-07-01T11:03:01.567Z,24.37
2018-07-01T11:04:01.584Z,24.39
2018-07-01T11:05:01.608Z,24.35
2018-07-01T11:06:01.734Z,24.27
2018-07-01T11:07:01.672Z,24.30
2018-07-01T11:08:01.651Z,24.18
2018-07-01T11:09:01.668Z,24.12
2018-07-01T11:10:01.686Z,24.27
2018-07-01T11:11:01.738Z,24.43
2018-07-01T11:12:01.744Z,24.61
2018-07-01T11:13:02.034Z,24.84
2018-07-01T11:14:01.867Z,25.02
2018-07-01T11:15:01.933Z,25.05
2018-07-01T11:16:01.892Z,24.93
2018-07-01T11:17:01.824Z,24.65
2018-07-01T11:18:01.828Z,24.55
2018-07-01T11:19:01.852Z,24.53
2018-07-01T11:20:01.863Z,24.85
2018-07-01T11:21:01.878Z,24.81
2018-07-01T11:22:01.903Z,24.87
2018-07-01T11:23:01.914Z,24.80
2018-07-01T11:24:01.929Z,24.68
2018-07-01T11:25:01.977Z,24.73
2018-07-01T11:26:01.963Z,24.58
2018-07-01T11:27:02.464Z,24.71
2018-07-01T11:28:02.006Z,24.87
2018-07-01T11:29:02.016Z,25.00
2018-07-01T11:30:02.037Z,24.96
2018-07-01T11:31:02.049Z,25.06
2018-07-01T11:32:02.072Z,25.21
2018-07-01T11:33:02.102Z,25.00
2018-07-01T11:34:02.128Z,24.85
2018-07-01T11:35:02.127Z,24.78
2018-07-01T11:36:02.141Z,24.81
2018-07-01T11:37:02.157Z,24.76
2018-07-01T11:38:02.284Z,24.95
2018-07-01T11:39:02.193Z,24.85
2018-07-01T11:40:02.236Z,24.95
2018-07-01T11:41:02.225Z,25.23
2018-07-01T11:42:02.243Z,25.38
2018-07-01T11:43:02.263Z,25.39
2018-07-01T11:44:02.279Z,25.39
2018-07-01T11:45:02.320Z,25.45
2018-07-01T11:46:02.313Z,25.46
2018-07-01T11:47:02.365Z,25.58
2018-07-01T11:48:02.357Z,25.57
2018-07-01T11:49:02.618Z,25.51
2018-07-01T11:50:02.481Z,25.36
2018-07-01T11:51:02.438Z,25.50
2018-07-01T11:52:02.485Z,25.14
2018-07-01T11:53:02.447Z,25.35
2018-07-01T11:54:02.459Z,25.46
2018-07-01T11:55:02.493Z,25.60
2018-07-01T11:56:02.497Z,25.51
2018-07-01T11:57:02.512Z,25.54
2018-07-01T11:58:02.557Z,25.76
2018-07-01T11:59:02.542Z,25.65
2018-07-01T12:00:02.648Z,25.65
2018-07-01T12:01:02.577Z,25.70
2018-07-01T12:02:02.651Z,25.45
2018-07-01T12:03:02.618Z,25.03
2018-07-01T12:04:02.645Z,24.93
2018-07-01T12:05:16.202Z,25.13
2018-07-01T12:06:02.671Z,25.18
2018-07-01T12:07:02.691Z,25.20
2018-07-01T12:08:02.707Z,25.27
2018-07-01T12:09:02.721Z,25.42
2018-07-01T12:10:02.741Z,25.40
2018-07-01T12:11:02.781Z,25.36
2018-07-01T12:12:02.879Z,25.50
2018-07-01T12:13:02.799Z,25.77
2018-07-01T12:14:02.813Z,25.79
2018-07-01T12:15:02.824Z,25.47
2018-07-01T12:16:02.846Z,25.67
2018-07-01T12:17:02.862Z,25.77
2018-07-01T12:18:02.884Z,25.73
2018-07-01T12:19:02.898Z,25.83
2018-07-01T12:20:02.966Z,25.97
2018-07-01T12:21:03.040Z,25.92
2018-07-01T12:22:02.954Z,25.98
2018-07-01T12:23:02.974Z,25.95
2018-07-01T12:24:02.987Z,26.15
2018-07-01T12:25:03.004Z,26.13
2018-07-01T12:26:03.024Z,26.30
2018-07-01T12:27:03.049Z,26.52
2018-07-01T12:28:03.060Z,26.66
2018-07-01T12:29:03.075Z,26.81
2018-07-01T12:30:03.099Z,26.81
2018-07-01T12:31:03.112Z,26.92
2018-07-01T12:32:03.134Z,27.09
2018-07-01T12:33:03.156Z,27.07
2018-07-01T12:34:03.170Z,27.07
2018-07-01T12:35:03.201Z,26.94
2018-07-01T12:36:03.210Z,26.91
2018-07-01T12:37:03.246Z,27.06
2018-07-01T12:38:03.243Z,26.81
2018-07-01T12:39:03.263Z,26.66
2018-07-01T12:40:03.314Z,26.48
2018-07-01T12:41:03.303Z,26.60
2018-07-01T12:42:03.360Z,26.45
2018-07-01T12:43:03.345Z,26.55
2018-07-01T12:44:03.366Z,26.45
2018-07-01T12:45:03.391Z,26.28
2018-07-01T12:46:03.423Z,26.12
2018-07-01T12:47:03.464Z,26.50
2018-07-01T12:48:03.576Z,26.81
2018-07-01T12:49:03.474Z,27.34
2018-07-01T12:50:03.498Z,27.44
2018-07-01T12:51:03.517Z,27.54
2018-07-01T12:52:03.539Z,27.57
2018-07-01T12:53:03.586Z,27.69
2018-07-01T12:54:03.735Z,27.69
2018-07-01T12:55:03.764Z,27.82
2018-07-01T12:56:03.635Z,27.88
2018-07-01T12:57:03.669Z,28.14
2018-07-01T12:58:03.680Z,28.31
2018-07-01T12:59:03.708Z,28.64
2018-07-01T13:00:03.732Z,28.73